Wednesday, October 22, 2014
12:19 UTC
  |  Log In   |  Register Free
Airport Search:

Madison Airport
(I39)

Madison Airport Diagram
No Airport Diagram Available

FAA data valid effective September 18, 2014 - November 13, 2014 (unless otherwise noted).

 
 
 
 
 
 
 
 
 
 
 
 
 
 

Current Aviation Weather for Madison Airport (I39)

METAR data is unavailable for I39. The nearest METAR location is at KDVK (21 nm SW from I39).

The most recent METAR observation for KDVK was updated at: 1214
METAR Summary (Translated METAR)
KDVK
221155Z AUTO 02003KT 10SM CLR 02/02 A3025 RMK AO2
(21 nm SW from I39)
KLEX
221154Z 36005KT 10SM OVC033 07/04 A3023 RMK AO2 SLP239 T00720039 10083 20061 53014 $
(27.6 nm NW from I39)
TAF Summary (Translated TAF)
KLEX
(28.6 nm NE from KDVK)
220520Z 2206/2306 03007KT P6SM SCT040 FM221000 02006KT P6SM BKN030 FM221400 01006KT P6SM SCT040 FM222300 03004KT P6SM SKC
  Airport Weather Conditions for I39

Current weather conditions are
not available for I39


The nearest NOAA weather station
is at DVK, (21 nm SW from I39)
  
 Current Weather at DVK
36° F
Fair
North winds at 3.5 mph
DVK NOAA Radar

Pressure: 30.25 in
Humidity: 100%
Wind: North at 3.5 MPH (3 KT)
Dew Point: 35.6°F
Visibility: 10.00 mi


Airport Weather Forecast for I39

Translated METAR and TAF for KDVK
Translated METAR for KDVK (1214 UTC 22 October 2014)
found at http://aviationweather.gov/adds/metars/
 
METAR text: KDVK 221155Z AUTO 02003KT 10SM CLR 02/02 A3025 RMK AO2
Conditions at: KDVK (DANVILLE , KY, US) observed 1155 UTC 22 October 2014
Temperature: 2.0°C (36°F)
Dewpoint: 2.0°C (36°F) [RH = 100%]
Pressure (altimeter): 30.25 inches Hg (1024.5 mb)
Winds: from the NNE (20 degrees) at 3 MPH (3 knots; 1.6 m/s)
Visibility: 10 or more miles (16+ km)
Ceiling: at least 12,000 feet AGL
Clouds: sky clear below 12,000 feet AGL
Weather: automated observation with no human augmentation;
there may or may not be significant weather present at this time
Translated TAF for KDVK

There is no translated TAF available for this airport

Find All Airport Services Find A Hotel Find A Rental Car Find A Golf Course Find A Restaurant $100 Hamburger



FBO's on the Field
FBO Company Facility Photos Services Transportation Aviation Fuel Prices: Prices include tax
Catering Weather Repair Courtesy Rental Type 100LL JetA JetA+ MOGAS 8087
 
Eastern Kentucky University

This FBO has not yet been rated
FS:Shell
Last Updated: Oct-10
Login to update fuel prices
SS:
Contact Eastern Kentucky UniversityMore FBO Information
 
Add another FBO Facility Photos Catering Weather Repair Courtesy Rental Type 100LL JetA JetA+ MOGAS 8087
Services Transportation Aviation Fuel Prices: Prices include tax


model-print
model-print
model-print
model-print